Aérodrome :
LOGIN :

S'inscrire | Disclaimer

   EN    FR    IT 

 










Légende :    VFR   VFR Marginal   IFR   IFR Intensif   IFR Très Intensif
Visi : 
Plafond : 
>= 8 km
>= 3000ft
5 à 8 km
1000 à 3000 ft
1500m à 5 km
500 à 1000 ft
800 à 1500m
200 à 500 ft
< 800m
< 200 ft
Symboles :   Orages  Brouillard  Fortes neiges  Fortes précipitations  Vent > 20 kt
SIGMETs :   Divers  Orages  Givrage  Turbulence  Onde Orograph.  Cendres Volcan.






- Altitude de l'aérodrome : 443 ft
- Code IATA : SQQ


EYSA - Siauliai

DERNIER METAR :
  • 232020Z 23009KT 9999 FEW012 BKN019 OVC023 03/01 Q0993 R14L/29//95 R14R/29//95 WHT TEMPO BKN013 GRN

METARs EXPIRÉS :
  • 231950Z 24010KT 9999 FEW014 BKN018 OVC044 03/01 Q0993 R14L/29//95 R14R/29//95 WHT TEMPO BKN013 GRN
  • 231920Z 23010KT 9999 BKN016 OVC043 03/01 Q0993 R14L/29//95 R14R/29//95 WHT NOSIG
  • 231850Z 23011KT 9999 BKN015 OVC044 03/01 Q0993 R14L/29//95 R14R/29//95 WHT NOSIG
  • 231820Z 24010KT 9999 SCT016 BKN019 OVC046 03/01 Q0993 R14L/29//95 R14R/29//95 WHT NOSIG
  • 231750Z 23013KT 9999 SCT019 BKN039 BKN047 04/00 Q0993 R14L/29//95 R14R/29//95 WHT NOSIG

TAF TAF EYSA
Valide du 23 à 21h jusqu'au 24 à 06h UTC


232000Z 2321/2406 25014KT 6000 SCT010 BKN015
TEMPO 2321/2324 SCT005 BKN018CB
TEMPO 2400/2404 32012KT 3000 SHRASN BKN005 BKN012CB



MET'MAP, la Météo Aéronautique d'un coup d'oeil ! - Copyright ORBIFLY Décembre 2007 - Disclaimer

ORBIFLY MET'MAP TEAM :

Programmation & Développement : Alexandra Zaïnal
Sur une idée originale de : Baudouin d'Aumeries
Assistance à la programmation : Marc-Olivier Méhu
Soutien technique & logistique : Manuel Goepfert

Contact : metmap@orbifly.com




SOURCES & CREDITS :

   NOAA